Time;durP1;ratioP1;P1;durP2;ratioP2;P2;SDS_P1;SDS_P2;PMS_P1;PMS_P2;Temp;Humidity;BMP_temperature;BMP_pressure;BME280_temperature;BME280_humidity;BME280_pressure;Samples;Min_cycle;Max_cycle;Signal;HPM_P1;HPM_P2
2021/04/16 00:01:32;;;;;;;1.10;1.00;;;22.60;27.10;;;;;;4973182;28;20228;-58
2021/04/16 00:03:58;;;;;;;1.10;1.10;;;22.60;27.10;;;;;;4967672;28;20205;-54
2021/04/16 00:06:23;;;;;;;1.23;1.13;;;22.60;27.10;;;;;;4973014;28;20719;-57
2021/04/16 00:08:49;;;;;;;1.00;0.90;;;22.60;27.10;;;;;;4972033;28;20267;-58
2021/04/16 00:11:15;;;;;;;1.13;1.03;;;22.60;27.10;;;;;;4970280;28;20239;-57
2021/04/16 00:13:41;;;;;;;1.50;1.00;;;22.60;27.10;;;;;;4974446;28;20654;-58
2021/04/16 00:16:07;;;;;;;3.03;1.00;;;22.60;27.10;;;;;;4973777;28;20254;-57
2021/04/16 00:18:33;;;;;;;1.37;1.20;;;22.60;27.20;;;;;;4973721;28;20547;-56
2021/04/16 00:20:59;;;;;;;1.73;1.47;;;22.60;27.10;;;;;;4972312;28;20228;-57
2021/04/16 00:23:25;;;;;;;1.30;1.20;;;22.60;27.20;;;;;;4966170;28;20279;-59
2021/04/16 00:25:51;;;;;;;1.40;1.30;;;22.60;27.20;;;;;;4973787;28;20547;-59
2021/04/16 00:28:17;;;;;;;1.20;1.10;;;22.60;27.10;;;;;;4955413;28;20209;-58
2021/04/16 00:30:43;;;;;;;2.73;1.10;;;22.60;27.10;;;;;;4971983;28;20322;-60
2021/04/16 00:33:09;;;;;;;1.30;1.20;;;22.60;27.20;;;;;;4957649;28;20201;-59
2021/04/16 00:35:35;;;;;;;1.10;1.10;;;22.60;27.20;;;;;;4968124;28;20578;-58
2021/04/16 00:38:01;;;;;;;1.17;1.00;;;22.60;27.20;;;;;;4972080;28;20264;-60
2021/04/16 00:40:27;;;;;;;1.20;1.20;;;22.60;27.20;;;;;;4971633;28;20232;-59
2021/04/16 00:42:53;;;;;;;1.23;1.10;;;22.60;27.20;;;;;;4962122;28;20256;-58
2021/04/16 00:45:19;;;;;;;1.20;1.10;;;22.60;27.20;;;;;;4965610;28;20226;-58
2021/04/16 00:47:45;;;;;;;1.53;1.00;;;22.60;27.20;;;;;;4972821;28;20208;-57
2021/04/16 00:50:11;;;;;;;1.63;1.10;;;22.60;27.20;;;;;;4968696;28;20197;-59
2021/04/16 00:52:37;;;;;;;1.20;1.10;;;22.60;27.20;;;;;;4969992;28;20204;-58
2021/04/16 00:55:03;;;;;;;1.20;1.10;;;22.60;27.20;;;;;;4972127;28;22219;-58
2021/04/16 00:57:29;;;;;;;1.00;1.00;;;22.60;27.20;;;;;;4970327;28;20204;-58
2021/04/16 00:59:55;;;;;;;1.00;1.00;;;22.60;27.20;;;;;;4968640;28;20216;-58
2021/04/16 01:02:21;;;;;;;1.27;1.03;;;22.60;27.30;;;;;;4971998;28;20201;-59
2021/04/16 01:04:47;;;;;;;1.47;1.13;;;22.60;27.20;;;;;;4972986;28;20270;-58
2021/04/16 01:07:13;;;;;;;1.10;1.00;;;22.60;27.30;;;;;;4972863;28;20699;-59
2021/04/16 01:09:39;;;;;;;1.33;1.10;;;22.60;27.30;;;;;;4973004;28;20214;-58
2021/04/16 01:12:05;;;;;;;1.43;1.07;;;22.60;27.20;;;;;;4972976;28;20225;-58
2021/04/16 01:14:31;;;;;;;1.10;1.10;;;22.60;27.30;;;;;;4967811;28;20691;-58
2021/04/16 01:16:57;;;;;;;1.03;1.00;;;22.60;27.20;;;;;;4972556;28;20211;-58
2021/04/16 01:19:23;;;;;;;0.90;0.90;;;22.60;27.30;;;;;;4959566;28;20213;-58
2021/04/16 01:21:49;;;;;;;1.00;1.00;;;22.60;27.30;;;;;;4973140;28;20225;-58
2021/04/16 01:24:15;;;;;;;2.47;1.10;;;22.60;27.30;;;;;;4971987;28;20258;-58
2021/04/16 01:26:41;;;;;;;1.20;1.10;;;22.60;27.30;;;;;;4972148;28;20298;-58
2021/04/16 01:29:07;;;;;;;1.10;1.00;;;22.60;27.30;;;;;;4970800;28;20219;-58
2021/04/16 01:31:33;;;;;;;1.10;1.10;;;22.60;27.30;;;;;;4972857;28;20239;-58
2021/04/16 01:33:59;;;;;;;1.30;1.20;;;22.60;27.30;;;;;;4971747;28;20207;-59
2021/04/16 01:36:25;;;;;;;1.00;1.00;;;22.60;27.30;;;;;;4972691;28;20212;-58
2021/04/16 01:38:51;;;;;;;1.10;1.10;;;22.60;27.30;;;;;;4962865;28;20201;-58
2021/04/16 01:41:17;;;;;;;1.13;0.90;;;22.60;27.40;;;;;;4952478;29;20234;-59
2021/04/16 01:43:43;;;;;;;1.03;0.93;;;22.60;27.40;;;;;;4966907;28;20210;-58
2021/04/16 01:46:10;;;;;;;1.07;1.07;;;22.60;27.30;;;;;;4972578;28;20263;-58
2021/04/16 01:48:36;;;;;;;1.13;1.07;;;22.60;27.40;;;;;;4971657;28;20215;-58
2021/04/16 01:51:01;;;;;;;1.40;1.30;;;22.60;27.40;;;;;;4972230;28;20220;-59
2021/04/16 01:53:27;;;;;;;1.10;1.07;;;22.60;27.40;;;;;;4970774;28;20199;-58
2021/04/16 01:55:53;;;;;;;0.90;0.90;;;22.60;27.40;;;;;;4968763;28;20211;-58
2021/04/16 01:58:19;;;;;;;1.93;1.20;;;22.60;27.40;;;;;;4961965;28;20220;-59
2021/04/16 02:00:45;;;;;;;0.87;0.87;;;22.60;27.40;;;;;;4969862;28;20301;-56
2021/04/16 02:03:11;;;;;;;1.07;0.97;;;22.60;27.40;;;;;;4971947;28;20286;-58
2021/04/16 02:05:37;;;;;;;1.03;0.93;;;22.60;27.50;;;;;;4971254;28;20863;-58
2021/04/16 02:08:03;;;;;;;1.10;1.10;;;22.60;27.50;;;;;;4971956;28;20260;-58
2021/04/16 02:10:29;;;;;;;1.27;1.17;;;22.60;27.50;;;;;;4972023;28;20571;-56
2021/04/16 02:12:55;;;;;;;1.20;1.10;;;22.60;27.50;;;;;;4971964;28;20211;-58
2021/04/16 02:15:21;;;;;;;1.20;1.10;;;22.60;27.50;;;;;;4970814;28;20211;-57
2021/04/16 02:17:47;;;;;;;1.10;1.00;;;22.60;27.50;;;;;;4970953;28;20211;-57
2021/04/16 02:20:13;;;;;;;0.87;0.87;;;22.60;27.60;;;;;;4970811;28;20222;-59
2021/04/16 02:22:39;;;;;;;1.20;0.90;;;22.60;27.60;;;;;;4970377;28;20200;-58
2021/04/16 02:25:05;;;;;;;1.17;1.10;;;22.60;27.70;;;;;;4970930;28;20299;-59
2021/04/16 02:27:31;;;;;;;0.93;0.93;;;22.60;27.50;;;;;;4971186;28;20316;-58
2021/04/16 02:29:57;;;;;;;1.00;1.00;;;22.60;27.60;;;;;;4971068;28;20234;-59
2021/04/16 02:32:23;;;;;;;0.80;0.80;;;22.60;27.70;;;;;;4971224;28;20210;-58
2021/04/16 02:34:49;;;;;;;3.37;1.10;;;22.60;27.70;;;;;;4970716;28;20270;-58
2021/04/16 02:37:15;;;;;;;1.00;1.00;;;22.60;27.70;;;;;;4969489;28;20219;-58
2021/04/16 02:39:41;;;;;;;1.07;0.87;;;22.60;27.70;;;;;;4971702;28;20231;-57
2021/04/16 02:42:07;;;;;;;1.07;0.97;;;22.60;27.60;;;;;;4959445;28;20196;-59
2021/04/16 02:44:33;;;;;;;1.17;1.07;;;22.60;27.60;;;;;;4971620;28;20238;-56
2021/04/16 02:46:59;;;;;;;1.10;1.00;;;22.60;27.70;;;;;;4971175;28;20601;-57
2021/04/16 02:49:25;;;;;;;0.90;0.90;;;22.60;28.30;;;;;;4976051;28;20306;-57
2021/04/16 02:51:51;;;;;;;1.00;1.00;;;22.60;27.80;;;;;;4973675;28;20589;-57
2021/04/16 02:54:17;;;;;;;1.20;1.10;;;22.60;27.70;;;;;;4974753;28;20295;-58
2021/04/16 02:56:43;;;;;;;1.10;1.00;;;22.60;27.70;;;;;;4974202;28;20204;-58
2021/04/16 02:59:09;;;;;;;1.17;1.10;;;22.60;27.70;;;;;;4973937;28;20209;-58
2021/04/16 03:01:35;;;;;;;1.10;1.00;;;22.60;27.70;;;;;;4966940;28;20223;-58
2021/04/16 03:04:01;;;;;;;0.90;0.90;;;22.60;27.70;;;;;;4973851;28;20610;-58
2021/04/16 03:06:27;;;;;;;1.03;1.00;;;22.60;27.70;;;;;;4974438;28;20235;-58
2021/04/16 03:08:53;;;;;;;1.07;1.00;;;22.60;27.70;;;;;;4974605;28;20219;-58
2021/04/16 03:11:19;;;;;;;1.00;1.00;;;22.60;28.30;;;;;;4974735;28;20223;-58
2021/04/16 03:13:45;;;;;;;1.30;1.20;;;22.60;27.80;;;;;;4965084;28;20626;-58
2021/04/16 03:16:11;;;;;;;1.10;1.00;;;22.60;27.70;;;;;;4973398;28;20210;-58
2021/04/16 03:18:37;;;;;;;1.20;1.10;;;22.60;27.80;;;;;;4966282;28;20537;-58
2021/04/16 03:21:03;;;;;;;0.90;0.90;;;22.60;27.70;;;;;;4968432;28;20286;-58
2021/04/16 03:23:29;;;;;;;1.37;1.00;;;22.60;27.70;;;;;;4974446;28;20218;-59
2021/04/16 03:25:55;;;;;;;0.90;0.90;;;22.60;27.70;;;;;;4973974;28;20242;-59
2021/04/16 03:28:21;;;;;;;1.43;0.93;;;22.60;27.70;;;;;;4975123;28;20258;-57
2021/04/16 03:30:46;;;;;;;0.90;0.90;;;22.60;27.80;;;;;;4972964;28;20587;-58
2021/04/16 03:33:12;;;;;;;1.33;1.33;;;22.60;27.70;;;;;;4973850;28;20218;-59
2021/04/16 03:35:38;;;;;;;0.97;0.90;;;22.60;27.70;;;;;;4973056;28;20203;-59
2021/04/16 03:38:04;;;;;;;0.90;0.90;;;22.60;27.80;;;;;;4973806;28;20590;-59
2021/04/16 03:40:30;;;;;;;1.07;1.03;;;22.60;27.70;;;;;;4973933;28;20239;-57
2021/04/16 03:42:56;;;;;;;0.83;0.83;;;22.60;27.80;;;;;;4974702;28;20625;-58
2021/04/16 03:45:22;;;;;;;1.00;0.90;;;22.60;27.70;;;;;;4973290;28;20204;-58
2021/04/16 03:47:48;;;;;;;0.90;0.90;;;22.60;27.70;;;;;;4973973;28;20708;-58
2021/04/16 03:50:14;;;;;;;1.70;1.10;;;22.50;27.70;;;;;;4974312;28;20228;-58
2021/04/16 03:52:40;;;;;;;1.17;1.07;;;22.60;27.70;;;;;;4973884;28;20570;-58
2021/04/16 03:55:06;;;;;;;1.10;1.10;;;22.60;27.70;;;;;;4974154;28;20204;-59
2021/04/16 03:57:32;;;;;;;0.80;0.80;;;22.60;27.70;;;;;;4973262;28;20234;-58
2021/04/16 03:59:58;;;;;;;1.20;1.10;;;22.60;27.70;;;;;;4974281;28;20233;-58
2021/04/16 04:02:24;;;;;;;1.10;1.10;;;22.60;27.70;;;;;;4973922;28;20208;-59
2021/04/16 04:04:50;;;;;;;0.90;0.90;;;22.60;28.30;;;;;;4973505;28;20258;-59
2021/04/16 04:07:16;;;;;;;1.23;1.00;;;22.60;28.40;;;;;;4972475;28;20223;-59
2021/04/16 04:09:42;;;;;;;1.10;1.00;;;22.60;28.30;;;;;;4973961;28;20710;-59
2021/04/16 04:12:08;;;;;;;1.13;1.03;;;22.60;28.20;;;;;;4973596;28;20232;-60
2021/04/16 04:14:34;;;;;;;1.37;1.10;;;22.60;28.20;;;;;;4973789;28;20331;-59
2021/04/16 04:17:00;;;;;;;1.20;0.90;;;22.60;28.10;;;;;;4972462;28;20204;-58
2021/04/16 04:19:26;;;;;;;1.10;1.00;;;22.60;28.10;;;;;;4973763;28;20193;-60
2021/04/16 04:21:52;;;;;;;1.20;1.00;;;22.60;28.10;;;;;;4972401;28;20223;-58
2021/04/16 04:24:18;;;;;;;2.13;1.00;;;22.60;28.10;;;;;;4972990;28;20214;-59
2021/04/16 04:26:44;;;;;;;1.10;1.00;;;22.60;28.10;;;;;;4967735;28;20711;-58
2021/04/16 04:29:10;;;;;;;1.00;1.00;;;22.60;28.10;;;;;;4973911;28;20209;-59
2021/04/16 04:31:36;;;;;;;2.77;0.80;;;22.60;28.10;;;;;;4972889;28;20691;-58
2021/04/16 04:34:02;;;;;;;1.57;1.00;;;22.60;28.00;;;;;;4973096;28;20208;-59
2021/04/16 04:36:28;;;;;;;0.87;0.80;;;22.60;28.10;;;;;;4971093;28;20206;-58
2021/04/16 04:38:54;;;;;;;1.00;1.00;;;22.60;28.00;;;;;;4973662;28;20215;-59
2021/04/16 04:41:20;;;;;;;0.90;0.90;;;22.60;28.10;;;;;;4972449;28;20314;-59
2021/04/16 04:43:46;;;;;;;1.10;1.00;;;22.60;28.10;;;;;;4974916;28;20207;-59
2021/04/16 04:46:12;;;;;;;0.83;0.83;;;22.60;28.00;;;;;;4971712;28;20232;-59
2021/04/16 04:48:38;;;;;;;1.40;1.30;;;22.60;28.20;;;;;;4973274;28;20660;-59
2021/04/16 04:51:04;;;;;;;1.10;1.00;;;22.50;28.10;;;;;;4972425;28;20223;-59
2021/04/16 04:53:30;;;;;;;0.90;0.90;;;22.60;28.10;;;;;;4973653;28;20208;-59
2021/04/16 04:55:56;;;;;;;1.10;1.10;;;22.60;28.10;;;;;;4971954;28;20208;-59
2021/04/16 04:58:22;;;;;;;1.13;1.13;;;22.60;28.10;;;;;;4972044;28;20239;-58
2021/04/16 05:00:48;;;;;;;1.10;1.10;;;22.60;28.10;;;;;;4971920;28;20303;-58
2021/04/16 05:03:14;;;;;;;0.90;0.90;;;22.60;28.20;;;;;;4972832;28;20695;-59
2021/04/16 05:05:40;;;;;;;0.87;0.87;;;22.60;28.10;;;;;;4972180;28;20203;-59
2021/04/16 05:08:06;;;;;;;0.90;0.90;;;22.60;28.10;;;;;;4972138;28;20659;-58
2021/04/16 05:10:32;;;;;;;1.60;0.90;;;22.60;28.10;;;;;;4972977;28;20225;-58
2021/04/16 05:12:58;;;;;;;1.33;1.23;;;22.60;28.10;;;;;;4972243;28;20207;-58
2021/04/16 05:15:24;;;;;;;1.37;1.00;;;22.60;28.10;;;;;;4971861;28;20212;-58
2021/04/16 05:17:50;;;;;;;1.20;1.10;;;22.60;28.20;;;;;;4971150;28;20212;-58
2021/04/16 05:20:16;;;;;;;0.90;0.90;;;22.60;28.20;;;;;;4972712;28;20258;-59
2021/04/16 05:22:42;;;;;;;1.63;1.00;;;22.60;28.10;;;;;;4971703;28;20667;-58
2021/04/16 05:25:08;;;;;;;3.57;1.23;;;22.60;28.10;;;;;;4971775;28;20211;-58
2021/04/16 05:27:34;;;;;;;1.67;0.87;;;22.60;28.10;;;;;;4969877;28;20235;-58
2021/04/16 05:30:00;;;;;;;1.93;1.17;;;22.60;28.10;;;;;;4968826;28;20782;-59
2021/04/16 05:32:26;;;;;;;1.87;1.00;;;22.60;28.10;;;;;;4972297;28;20212;-58
2021/04/16 05:34:52;;;;;;;0.83;0.83;;;22.60;28.10;;;;;;4970072;28;20240;-58
2021/04/16 05:37:18;;;;;;;2.00;0.93;;;22.60;28.10;;;;;;4971961;28;20636;-61
2021/04/16 05:39:44;;;;;;;0.90;0.90;;;22.60;28.10;;;;;;4970985;28;20235;-61
2021/04/16 05:42:10;;;;;;;1.43;1.00;;;22.60;28.20;;;;;;4972465;28;20203;-61
2021/04/16 05:44:36;;;;;;;0.90;0.90;;;22.60;28.20;;;;;;4971412;28;20559;-61
2021/04/16 05:47:02;;;;;;;1.27;1.07;;;22.60;28.20;;;;;;4971467;28;20223;-61
2021/04/16 05:49:28;;;;;;;1.20;1.10;;;22.60;28.30;;;;;;4972349;28;20232;-60
2021/04/16 05:51:54;;;;;;;3.40;1.23;;;22.60;28.30;;;;;;4972679;28;20200;-61
2021/04/16 05:54:20;;;;;;;1.87;0.90;;;22.60;28.30;;;;;;4971954;28;20672;-61
2021/04/16 05:56:46;;;;;;;2.00;1.00;;;22.60;28.30;;;;;;4971585;28;20266;-61
2021/04/16 05:59:12;;;;;;;1.03;1.03;;;22.60;28.30;;;;;;4972126;28;20231;-61
2021/04/16 06:01:38;;;;;;;1.83;1.10;;;22.60;28.30;;;;;;4972337;28;20210;-61
2021/04/16 06:04:04;;;;;;;1.50;1.00;;;22.60;28.30;;;;;;4971703;28;20559;-61
2021/04/16 06:06:30;;;;;;;1.10;1.00;;;22.60;28.30;;;;;;4971339;28;20231;-61
2021/04/16 06:08:56;;;;;;;1.67;1.00;;;22.60;28.30;;;;;;4971549;28;20214;-61
2021/04/16 06:11:22;;;;;;;1.40;1.10;;;22.60;28.30;;;;;;4972214;28;20580;-60
2021/04/16 06:13:48;;;;;;;2.30;1.17;;;22.60;28.30;;;;;;4971084;28;20321;-61
2021/04/16 06:16:14;;;;;;;1.27;1.00;;;22.60;28.40;;;;;;4972277;28;20215;-61
2021/04/16 06:18:40;;;;;;;2.67;1.40;;;22.60;28.40;;;;;;4970724;28;20563;-61
2021/04/16 06:21:06;;;;;;;2.60;1.00;;;22.60;28.30;;;;;;4972256;28;20295;-61
2021/04/16 06:23:32;;;;;;;1.00;0.90;;;22.60;28.40;;;;;;4974798;28;20606;-61
2021/04/16 06:25:58;;;;;;;1.07;1.07;;;22.60;28.40;;;;;;4971536;28;20218;-61
2021/04/16 06:28:24;;;;;;;0.80;0.80;;;22.60;28.30;;;;;;4975113;28;20203;-61
2021/04/16 06:30:50;;;;;;;2.37;1.00;;;22.60;28.40;;;;;;4974786;28;20697;-61
2021/04/16 06:33:16;;;;;;;0.93;0.83;;;22.60;28.40;;;;;;4973364;28;20216;-61
2021/04/16 06:35:42;;;;;;;1.23;0.90;;;22.60;28.30;;;;;;4974631;28;20278;-60
2021/04/16 06:38:08;;;;;;;1.10;0.90;;;22.60;28.30;;;;;;4973987;28;20587;-61
2021/04/16 06:40:34;;;;;;;1.10;1.10;;;22.60;28.30;;;;;;4975885;28;20239;-61
2021/04/16 06:43:00;;;;;;;1.00;1.00;;;22.60;28.40;;;;;;4974890;28;20296;-61
2021/04/16 06:45:26;;;;;;;1.20;0.90;;;22.60;28.40;;;;;;4974659;28;20263;-61
2021/04/16 06:47:52;;;;;;;0.93;0.93;;;22.60;28.30;;;;;;4974499;28;20593;-61
2021/04/16 06:50:18;;;;;;;1.30;1.10;;;22.60;28.40;;;;;;4972869;28;20226;-61
2021/04/16 06:52:44;;;;;;;1.10;1.00;;;22.60;28.40;;;;;;4967222;28;20235;-61
2021/04/16 06:55:11;;;;;;;0.93;0.90;;;22.60;28.40;;;;;;4974395;28;20208;-62
2021/04/16 06:57:38;;;;;;;1.33;1.07;;;22.60;28.30;;;;;;4975228;28;20219;-61
2021/04/16 07:00:04;;;;;;;1.43;0.93;;;22.60;28.30;;;;;;4974085;28;20770;-61
2021/04/16 07:02:29;;;;;;;1.70;1.03;;;22.60;28.30;;;;;;4974697;28;20208;-64
2021/04/16 07:04:55;;;;;;;0.80;0.80;;;22.60;28.30;;;;;;4974351;28;20575;-61
2021/04/16 07:07:21;;;;;;;1.10;1.10;;;22.60;28.70;;;;;;4974803;28;20232;-61
2021/04/16 07:09:47;;;;;;;1.23;1.13;;;22.70;28.30;;;;;;4973186;28;20236;-61
2021/04/16 07:12:14;;;;;;;1.97;1.00;;;22.70;28.30;;;;;;4960019;28;20211;-60
2021/04/16 07:14:40;;;;;;;1.97;1.20;;;22.70;28.40;;;;;;4973635;28;20287;-60
2021/04/16 07:17:06;;;;;;;2.40;1.03;;;22.70;28.50;;;;;;4974231;28;20207;-61
2021/04/16 07:19:32;;;;;;;1.13;1.03;;;22.70;28.60;;;;;;4975388;28;20711;-62
2021/04/16 07:21:58;;;;;;;2.33;1.10;;;22.70;28.30;;;;;;4980446;28;20255;-60
2021/04/16 07:24:23;;;;;;;1.53;1.13;;;22.70;28.20;;;;;;4975602;28;20204;-61
2021/04/16 07:26:50;;;;;;;2.23;1.00;;;22.70;28.30;;;;;;4972905;28;20239;-61
2021/04/16 07:29:20;;;;;;;1.53;1.17;;;22.80;28.30;;;;;;4974389;28;20279;-63
2021/04/16 07:31:48;;;;;;;2.20;1.20;;;22.80;28.30;;;;;;4976835;28;20212;-59
2021/04/16 07:34:14;;;;;;;1.90;1.20;;;22.80;29.50;;;;;;4982184;28;20574;-56
2021/04/16 07:36:40;;;;;;;1.83;1.00;;;22.80;29.10;;;;;;4970747;28;20215;-54
2021/04/16 07:39:06;;;;;;;4.63;1.20;;;22.80;29.20;;;;;;4980150;28;20627;-60
2021/04/16 07:41:32;;;;;;;3.07;1.00;;;22.80;29.60;;;;;;4973518;28;20205;-60
2021/04/16 07:43:58;;;;;;;5.00;1.63;;;22.90;30.20;;;;;;4974124;28;20222;-62
2021/04/16 07:46:24;;;;;;;3.93;1.50;;;22.90;31.20;;;;;;4973772;28;20235;-64
2021/04/16 07:48:50;;;;;;;5.40;1.50;;;22.90;30.90;;;;;;4972358;28;20565;-57
2021/04/16 07:51:16;;;;;;;6.00;2.20;;;22.80;32.10;;;;;;4972830;28;20216;-62
2021/04/16 07:53:42;;;;;;;6.00;1.87;;;22.90;33.30;;;;;;4972940;28;20219;-62
2021/04/16 07:56:08;;;;;;;7.60;2.07;;;22.80;32.70;;;;;;4974587;28;20205;-61
2021/04/16 07:58:34;;;;;;;4.97;1.70;;;22.80;33.60;;;;;;4970877;28;20204;-62
2021/04/16 08:01:00;;;;;;;3.10;1.67;;;22.80;32.10;;;;;;4974666;28;20213;-61
2021/04/16 08:03:26;;;;;;;4.60;1.83;;;22.80;32.20;;;;;;4973854;28;20608;-59
2021/04/16 08:05:52;;;;;;;8.70;1.70;;;22.80;32.10;;;;;;4974584;28;20205;-59
2021/04/16 08:08:18;;;;;;;6.23;1.87;;;22.80;32.00;;;;;;4973096;28;20575;-46
2021/04/16 08:10:44;;;;;;;5.83;3.47;;;22.80;34.00;;;;;;4968691;28;20227;-48
2021/04/16 08:13:10;;;;;;;4.97;3.73;;;21.10;26.20;;;;;;4968589;28;20573;-47
2021/04/16 08:15:36;;;;;;;3.90;2.83;;;20.50;25.80;;;;;;4973445;28;20207;-51
2021/04/16 08:18:02;;;;;;;4.83;2.50;;;20.70;26.00;;;;;;4972678;28;20284;-50
2021/04/16 08:20:28;;;;;;;4.67;2.37;;;21.30;25.60;;;;;;4971271;28;20221;-51
2021/04/16 08:22:54;;;;;;;3.43;2.07;;;21.80;26.70;;;;;;4973480;28;20294;-54
2021/04/16 08:25:20;;;;;;;4.50;2.07;;;22.10;27.50;;;;;;4965431;28;20212;-52
2021/04/16 08:27:46;;;;;;;2.87;1.80;;;22.30;27.70;;;;;;4958414;28;20236;-54
2021/04/16 08:30:12;;;;;;;2.33;1.50;;;22.50;28.80;;;;;;4971888;28;20231;-54
2021/04/16 08:32:38;;;;;;;2.40;1.50;;;22.60;29.30;;;;;;4969077;28;20199;-53
2021/04/16 08:35:04;;;;;;;2.63;1.40;;;22.70;29.80;;;;;;4970003;28;20555;-48
2021/04/16 08:37:30;;;;;;;3.37;1.40;;;22.90;29.80;;;;;;4968529;28;20218;-48
2021/04/16 08:39:56;;;;;;;3.23;1.70;;;23.00;30.00;;;;;;4966530;28;20227;-56
2021/04/16 08:42:22;;;;;;;2.37;1.37;;;23.00;30.40;;;;;;4970305;28;20672;-48
2021/04/16 08:44:48;;;;;;;1.90;1.37;;;23.10;31.30;;;;;;4970467;28;20223;-46
2021/04/16 08:47:14;;;;;;;1.47;1.33;;;23.10;30.80;;;;;;4971925;28;20227;-48
2021/04/16 08:49:40;;;;;;;3.43;1.40;;;23.10;30.60;;;;;;4971807;28;20759;-47
2021/04/16 08:52:06;;;;;;;3.73;1.40;;;23.10;30.70;;;;;;4972508;28;20204;-47
2021/04/16 08:54:32;;;;;;;2.33;1.30;;;23.00;30.30;;;;;;4972400;28;20228;-48
2021/04/16 08:56:58;;;;;;;3.50;1.30;;;22.90;29.80;;;;;;4970712;28;20504;-46
2021/04/16 08:59:24;;;;;;;3.70;1.37;;;22.90;30.20;;;;;;4970150;28;20220;-45
2021/04/16 09:01:50;;;;;;;1.57;1.27;;;23.00;30.00;;;;;;4969329;28;20307;-49
2021/04/16 09:04:16;;;;;;;3.10;1.50;;;23.00;31.30;;;;;;4971580;28;20665;-49
2021/04/16 09:06:42;;;;;;;2.03;1.30;;;23.00;30.00;;;;;;4971245;28;20227;-52
2021/04/16 09:09:08;;;;;;;2.40;1.20;;;23.00;30.40;;;;;;4970556;28;20231;-48
2021/04/16 09:11:34;;;;;;;3.37;1.20;;;23.00;30.90;;;;;;4970236;28;20244;-52
2021/04/16 09:14:00;;;;;;;1.93;1.57;;;23.00;30.50;;;;;;4970570;28;20231;-49
2021/04/16 09:16:26;;;;;;;5.73;1.40;;;23.00;31.80;;;;;;4966114;28;20226;-51
2021/04/16 09:18:52;;;;;;;3.17;1.50;;;23.00;31.10;;;;;;4972041;28;20731;-50
2021/04/16 09:21:18;;;;;;;2.70;1.30;;;22.90;30.40;;;;;;4972784;28;20211;-46
2021/04/16 09:23:46;;;;;;;3.23;1.13;;;22.90;30.20;;;;;;4972902;28;20285;-48
2021/04/16 09:26:12;;;;;;;3.73;1.23;;;22.90;30.30;;;;;;4972488;28;20632;-51
2021/04/16 09:28:38;;;;;;;2.30;1.30;;;22.90;30.20;;;;;;4972724;28;20234;-50
2021/04/16 09:31:04;;;;;;;2.20;1.40;;;22.80;30.40;;;;;;4972541;28;20547;-50
2021/04/16 09:33:30;;;;;;;1.60;1.40;;;22.80;30.50;;;;;;4972890;28;20204;-47
2021/04/16 09:35:57;;;;;;;2.37;1.00;;;22.80;30.90;;;;;;4972622;28;20722;-47
2021/04/16 09:38:23;;;;;;;2.27;1.20;;;22.80;30.60;;;;;;4971888;28;21023;-46
2021/04/16 09:40:48;;;;;;;3.03;1.63;;;22.80;31.00;;;;;;4972184;28;20206;-48
2021/04/16 09:43:15;;;;;;;2.80;1.30;;;22.80;31.10;;;;;;4972686;28;20211;-47
2021/04/16 09:45:41;;;;;;;1.70;1.20;;;22.80;31.40;;;;;;4972456;28;20571;-51
2021/04/16 09:48:07;;;;;;;1.03;1.00;;;22.80;31.40;;;;;;4971517;28;20224;-48
2021/04/16 09:50:33;;;;;;;1.57;1.10;;;22.80;31.00;;;;;;4971996;28;20583;-46
2021/04/16 09:52:59;;;;;;;1.17;1.07;;;22.80;30.90;;;;;;4953334;29;20255;-50
2021/04/16 09:57:59;;;;;;;1.50;1.30;;;22.80;30.90;;;;;;4989067;28;20238;-61
2021/04/16 10:00:25;;;;;;;1.38;1.27;;;22.70;31.00;;;;;;5010385;28;20207;-61
2021/04/16 10:02:51;;;;;;;1.80;1.30;;;22.80;31.10;;;;;;5011013;28;20205;-62
2021/04/16 10:05:18;;;;;;;1.20;1.10;;;22.80;30.90;;;;;;5010877;28;20542;-61
2021/04/16 10:07:44;;;;;;;1.20;1.00;;;22.80;30.40;;;;;;5010362;28;20285;-62
2021/04/16 10:10:10;;;;;;;1.30;1.20;;;22.80;30.10;;;;;;5010563;28;20630;-61
2021/04/16 10:12:36;;;;;;;1.90;1.10;;;22.80;29.90;;;;;;5008574;28;20217;-61
2021/04/16 10:15:02;;;;;;;1.40;1.10;;;22.80;29.80;;;;;;5007229;28;20670;-61
2021/04/16 10:17:29;;;;;;;4.60;1.40;;;22.80;30.00;;;;;;5008018;28;20299;-61
2021/04/16 10:19:55;;;;;;;2.80;1.47;;;22.80;30.00;;;;;;5005700;28;20773;-61
2021/04/16 10:22:21;;;;;;;3.27;1.30;;;22.90;30.00;;;;;;5010503;28;20207;-63
2021/04/16 12:40:07;;;;;;;32.20;18.90;;;22.60;23.30;;;;;;5008454;28;20198;-63
2021/04/16 12:42:33;;;;;;;33.63;18.53;;;22.70;24.10;;;;;;5011648;28;20543;-63
2021/04/16 12:44:59;;;;;;;34.10;18.43;;;22.80;25.20;;;;;;5010642;28;20211;-63
2021/04/16 12:47:25;;;;;;;31.27;17.93;;;22.90;25.40;;;;;;5009233;28;20655;-63
2021/04/16 12:49:51;;;;;;;29.80;17.80;;;23.00;26.00;;;;;;5011760;28;20203;-62
2021/04/16 12:52:17;;;;;;;34.67;18.63;;;23.10;26.20;;;;;;5011732;28;20214;-63
2021/04/16 12:54:48;;;;;;;28.30;17.17;;;23.10;26.30;;;;;;5005607;28;20236;-62
2021/04/16 12:57:14;;;;;;;29.80;16.60;;;23.20;26.60;;;;;;4988739;28;20651;-64
2021/04/16 12:59:40;;;;;;;29.20;16.40;;;23.20;26.70;;;;;;5008680;28;20257;-68
2021/04/16 13:02:06;;;;;;;17.17;9.67;;;23.20;27.00;;;;;;5011435;28;20203;-64
2021/04/16 13:04:32;;;;;;;10.83;6.93;;;23.00;24.40;;;;;;5011553;28;20207;-68
2021/04/16 13:06:58;;;;;;;12.73;7.27;;;22.80;23.40;;;;;;5011021;28;20229;-62
2021/04/16 13:09:24;;;;;;;11.63;7.27;;;22.70;22.60;;;;;;4993387;28;20212;-63
2021/04/16 13:11:50;;;;;;;13.77;7.77;;;22.70;23.40;;;;;;5009719;28;20211;-63
2021/04/16 13:14:16;;;;;;;12.02;8.60;;;22.60;23.50;;;;;;5011354;28;20654;-63
2021/04/16 13:16:42;;;;;;;15.63;7.73;;;22.60;23.60;;;;;;5010722;28;20217;-63
2021/04/16 13:19:08;;;;;;;10.27;6.67;;;22.60;23.50;;;;;;5006128;28;20331;-62
2021/04/16 13:21:34;;;;;;;9.67;6.50;;;22.60;23.60;;;;;;5011677;28;20214;-63
2021/04/16 13:24:00;;;;;;;11.33;6.10;;;22.60;23.60;;;;;;5011460;28;20219;-63
2021/04/16 13:26:26;;;;;;;11.70;6.43;;;22.50;23.50;;;;;;5011258;28;20222;-64
2021/04/16 13:28:52;;;;;;;11.37;6.27;;;22.50;23.50;;;;;;5011472;28;20643;-63
2021/04/16 13:31:18;;;;;;;9.83;5.93;;;22.50;23.40;;;;;;5010876;28;20209;-64
2021/04/16 13:33:44;;;;;;;9.47;5.90;;;22.50;23.40;;;;;;5011155;28;20218;-64
2021/04/16 13:36:10;;;;;;;7.00;4.90;;;22.50;23.40;;;;;;5010912;28;20597;-64
2021/04/16 13:38:36;;;;;;;7.73;5.77;;;22.50;23.40;;;;;;5010801;28;20245;-64
2021/04/16 13:41:02;;;;;;;10.87;5.60;;;22.50;23.40;;;;;;5011043;28;20213;-64
2021/04/16 13:43:28;;;;;;;7.30;4.30;;;22.50;23.40;;;;;;5011052;28;20651;-63
2021/04/16 13:45:54;;;;;;;7.93;4.67;;;22.50;23.40;;;;;;5009791;28;20217;-61
2021/04/16 13:48:20;;;;;;;10.00;5.00;;;22.40;23.20;;;;;;5009162;28;20244;-62
2021/04/16 13:50:46;;;;;;;6.43;4.23;;;22.40;23.20;;;;;;5010668;28;20599;-62
2021/04/16 13:53:12;;;;;;;6.40;3.90;;;22.40;23.20;;;;;;5010719;28;20257;-62
2021/04/16 13:55:38;;;;;;;7.13;4.43;;;22.40;23.10;;;;;;5010797;28;20217;-62
2021/04/16 13:58:04;;;;;;;5.53;4.10;;;22.40;23.10;;;;;;5005859;28;20230;-62
2021/04/16 14:00:30;;;;;;;6.87;4.10;;;22.40;23.00;;;;;;5010643;28;20206;-63
2021/04/16 14:02:56;;;;;;;4.63;3.47;;;22.40;23.00;;;;;;5010725;28;20211;-62
2021/04/16 14:05:22;;;;;;;4.40;3.30;;;22.40;23.00;;;;;;5010229;28;20213;-62
2021/04/16 14:07:48;;;;;;;6.13;3.47;;;22.40;23.00;;;;;;5010372;28;20702;-63
2021/04/16 14:10:14;;;;;;;5.10;3.37;;;22.40;23.00;;;;;;5010965;28;20206;-61
2021/04/16 14:12:39;;;;;;;7.00;3.63;;;22.40;23.10;;;;;;5011278;28;20211;-62
2021/04/16 14:15:06;;;;;;;4.13;3.40;;;22.50;23.30;;;;;;5004186;28;20218;-62
2021/04/16 14:17:32;;;;;;;3.50;3.20;;;22.40;23.10;;;;;;4999142;28;20223;-64
2021/04/16 14:20:02;;;;;;;4.07;3.00;;;22.50;23.20;;;;;;5010792;28;20560;-63
2021/04/16 14:22:28;;;;;;;6.07;3.50;;;22.50;23.10;;;;;;5011255;28;20257;-64
2021/04/16 14:24:54;;;;;;;5.20;3.10;;;22.50;23.00;;;;;;5008040;28;20283;-66
2021/04/16 14:27:20;;;;;;;17.27;4.33;;;22.40;23.00;;;;;;5009491;28;20238;-63
2021/04/16 14:29:46;;;;;;;5.27;3.00;;;22.70;24.80;;;;;;5011294;28;20234;-63
2021/04/16 14:32:12;;;;;;;6.33;3.37;;;22.60;23.90;;;;;;5008111;28;20670;-64
2021/04/16 14:34:38;;;;;;;5.67;3.27;;;22.60;23.90;;;;;;5001016;28;20211;-65
2021/04/16 14:37:04;;;;;;;6.13;3.17;;;22.60;24.60;;;;;;5003472;28;20226;-66
2021/04/16 14:39:30;;;;;;;7.77;3.40;;;22.60;24.90;;;;;;5000463;28;20218;-64
2021/04/16 14:41:56;;;;;;;5.53;2.70;;;22.60;25.30;;;;;;5000701;28;20217;-65
2021/04/16 14:44:22;;;;;;;5.77;3.17;;;22.60;25.50;;;;;;5003956;28;20199;-65
2021/04/16 14:46:49;;;;;;;6.60;2.73;;;22.60;25.70;;;;;;5003952;28;20238;-68
2021/04/16 14:49:17;;;;;;;5.70;3.08;;;22.60;25.80;;;;;;5004515;28;20230;-64
2021/04/16 14:51:43;;;;;;;4.93;2.50;;;22.70;26.10;;;;;;5003756;28;20206;-72
2021/04/16 14:54:09;;;;;;;4.57;2.70;;;22.70;26.10;;;;;;5003342;28;20261;-62
2021/04/16 14:56:35;;;;;;;4.13;2.25;;;22.70;26.20;;;;;;5002282;28;22133;-65